KPTN

Harry P Williams Memorial Airport

Patterson, Louisiana, USA
METAR KPTN 151856Z AUTO 19014G19KT 10SM FEW015 OVC027 21/18 A2986 RMK AO2 SLP112 T02110183
Observed Flight Rules
Feb-15 @ 18:56 UTC (15 minutes ago) Marginal Visual Flight Rules
Wind Visibility Clouds
190° at 14 knots
 Gusting to 19 knots
10 miles
  • Few at 1,500' AGL
  • Overcast at 2,700' AGL
Temperatures Readings
Current 21°C / 70°F
Dewpoint 18°C / 64°F
Humidity 83%
Altimeter 29.86" Hg
Pressure 1011.2 hPa
Elevation 3
METAR KPTN 151856Z AUTO 19014G19KT 10SM FEW015 OVC027 21/18 A2986 RMK AO2 SLP112 T02110183
Observed Flight Rules
Feb-15 @ 18:56 UTC
(15 minutes ago)
MVFR
Wind Visibility
190° at 14 knots
 Gusting to 19 knots
10 miles
Clouds
  • Few at 1,500' AGL
  • Overcast at 2,700' AGL
Temperature Dewpoint
21°C / 70°F 18°C / 64°F
Humidity Altimeter Pressure
83% 29.86" Hg 1011.2 hPa